Time;durP1;ratioP1;P1;durP2;ratioP2;P2;SDS_P1;SDS_P2;PMS_P1;PMS_P2;Temp;Humidity;BMP_temperature;BMP_pressure;BME280_temperature;BME280_humidity;BME280_pressure;Samples;Min_cycle;Max_cycle;Signal;HPM_P1;HPM_P2
2022/06/09 00:00:10;;;;;;;0.30;0.30;;;14.20;99.90;;;;;;5114491;28;20457;-69
2022/06/09 00:02:38;;;;;;;0.30;0.30;;;14.30;99.90;;;;;;5114213;28;20790;-68
2022/06/09 00:05:06;;;;;;;0.30;0.30;;;14.30;99.90;;;;;;5113900;28;20412;-70
2022/06/09 00:07:32;;;;;;;0.30;0.30;;;14.30;99.90;;;;;;5114277;28;20410;-69
2022/06/09 00:10:03;;;;;;;0.30;0.30;;;14.30;99.90;;;;;;5114341;28;20400;-70
2022/06/09 00:12:30;;;;;;;0.30;0.30;;;14.30;99.90;;;;;;5114088;28;20187;-68
2022/06/09 00:14:57;;;;;;;0.30;0.30;;;14.30;99.90;;;;;;5114316;28;20417;-69
2022/06/09 00:17:24;;;;;;;0.30;0.30;;;14.30;99.90;;;;;;5114309;28;20496;-70
2022/06/09 00:19:50;;;;;;;0.30;0.30;;;14.30;99.90;;;;;;5114036;28;20862;-69
2022/06/09 00:22:16;;;;;;;0.30;0.30;;;14.30;99.90;;;;;;5113638;28;20429;-67
2022/06/09 00:24:42;;;;;;;0.30;0.30;;;14.30;99.90;;;;;;5114323;28;20406;-70
2022/06/09 00:27:07;;;;;;;0.40;0.40;;;14.20;99.90;;;;;;5114231;28;20879;-68
2022/06/09 00:29:34;;;;;;;0.30;0.30;;;14.10;99.90;;;;;;5112898;28;20184;-69
2022/06/09 00:31:59;;;;;;;0.30;0.30;;;14.00;99.90;;;;;;5114101;28;20195;-69
2022/06/09 00:34:25;;;;;;;0.30;0.30;;;13.90;99.90;;;;;;5113970;28;20882;-69
2022/06/09 00:36:50;;;;;;;0.30;0.30;;;13.90;99.90;;;;;;5114110;28;20633;-69
2022/06/09 00:39:16;;;;;;;0.30;0.30;;;14.00;99.90;;;;;;5114041;28;20288;-70
2022/06/09 00:41:43;;;;;;;0.30;0.30;;;14.00;99.90;;;;;;5114008;28;20269;-69
2022/06/09 00:44:17;;;;;;;0.30;0.30;;;13.90;99.90;;;;;;5113831;28;20182;-68
2022/06/09 00:46:46;;;;;;;0.30;0.30;;;13.90;99.90;;;;;;5113831;28;20424;-68
2022/06/09 00:49:31;;;;;;;0.30;0.30;;;13.80;99.90;;;;;;5114204;28;20762;-68
2022/06/09 00:52:00;;;;;;;0.30;0.30;;;13.80;99.90;;;;;;5113929;28;20426;-68
2022/06/09 00:54:30;;;;;;;0.30;0.30;;;13.90;99.90;;;;;;5113903;28;20406;-69
2022/06/09 00:57:01;;;;;;;0.30;0.30;;;13.90;99.90;;;;;;5113874;28;20496;-69
2022/06/09 00:59:27;;;;;;;0.30;0.30;;;13.90;99.90;;;;;;5113878;28;20982;-69
2022/06/09 01:02:01;;;;;;;0.30;0.30;;;13.90;99.90;;;;;;5113644;28;20470;-69
2022/06/09 01:04:30;;;;;;;0.30;0.30;;;13.90;99.90;;;;;;5113938;28;20881;-69
2022/06/09 01:07:05;;;;;;;0.30;0.30;;;14.00;99.90;;;;;;5113818;28;20522;-70
2022/06/09 01:09:31;;;;;;;0.30;0.30;;;13.90;99.90;;;;;;5113889;28;20425;-68
2022/06/09 01:11:58;;;;;;;0.30;0.30;;;14.00;99.90;;;;;;5113755;28;20425;-68
2022/06/09 01:14:28;;;;;;;0.30;0.30;;;14.00;99.90;;;;;;5113405;28;20413;-69
2022/06/09 01:17:04;;;;;;;0.30;0.30;;;13.80;99.90;;;;;;5113676;28;20481;-68
2022/06/09 01:19:55;;;;;;;0.30;0.30;;;13.80;99.90;;;;;;5117537;28;20448;-68
2022/06/09 01:22:44;;;;;;;0.30;0.30;;;13.80;99.90;;;;;;5117272;28;20456;-67
2022/06/09 01:25:16;;;;;;;0.30;0.30;;;13.70;99.90;;;;;;5117468;28;20397;-69
2022/06/09 01:28:10;;;;;;;0.30;0.30;;;13.70;99.90;;;;;;5117463;28;20405;-70
2022/06/09 01:30:50;;;;;;;0.30;0.30;;;13.80;99.90;;;;;;5117237;28;20398;-69
2022/06/09 01:33:22;;;;;;;0.30;0.30;;;13.80;99.90;;;;;;5116991;28;20418;-69
2022/06/09 01:35:54;;;;;;;0.30;0.30;;;13.80;99.90;;;;;;5117246;28;20441;-70
2022/06/09 01:38:20;;;;;;;0.40;0.40;;;13.90;99.90;;;;;;5117180;28;20445;-69
2022/06/09 01:40:46;;;;;;;0.30;0.30;;;13.90;99.90;;;;;;5117690;28;20771;-68
2022/06/09 01:43:11;;;;;;;0.30;0.30;;;13.90;99.90;;;;;;5116842;28;20275;-68
2022/06/09 01:46:05;;;;;;;0.30;0.30;;;13.80;99.90;;;;;;5117155;28;20179;-68
2022/06/09 01:48:32;;;;;;;0.30;0.30;;;13.80;99.90;;;;;;5117121;28;20689;-69
2022/06/09 01:51:06;;;;;;;0.30;0.30;;;13.70;99.90;;;;;;5116959;28;20404;-69
2022/06/09 01:53:37;;;;;;;0.30;0.30;;;13.70;99.90;;;;;;5116631;28;20973;-69
2022/06/09 01:56:11;;;;;;;0.30;0.30;;;13.70;99.90;;;;;;5117009;28;20397;-70
2022/06/09 01:58:54;;;;;;;0.30;0.30;;;13.70;99.90;;;;;;5116866;28;20886;-69
2022/06/09 02:01:25;;;;;;;0.30;0.30;;;13.60;99.90;;;;;;5116864;28;20394;-69
2022/06/09 02:03:53;;;;;;;0.30;0.30;;;13.60;99.90;;;;;;5116400;28;20433;-70
2022/06/09 02:06:20;;;;;;;0.30;0.30;;;13.60;99.90;;;;;;5116743;28;20433;-68
2022/06/09 02:08:47;;;;;;;0.40;0.40;;;13.60;99.90;;;;;;5116595;28;20459;-70
2022/06/09 02:11:13;;;;;;;0.30;0.30;;;13.70;99.90;;;;;;5116601;28;20510;-68
2022/06/09 02:13:51;;;;;;;0.30;0.30;;;13.80;99.90;;;;;;5116174;28;20429;-69
2022/06/09 02:16:20;;;;;;;0.30;0.30;;;13.70;99.90;;;;;;5116312;28;20416;-68
2022/06/09 02:18:49;;;;;;;0.40;0.40;;;13.70;99.90;;;;;;5116248;28;20909;-69
2022/06/09 02:21:18;;;;;;;0.30;0.30;;;13.80;99.90;;;;;;5116353;28;20402;-70
2022/06/09 02:23:45;;;;;;;0.30;0.30;;;13.80;99.90;;;;;;5115984;28;20442;-68
2022/06/09 02:26:10;;;;;;;0.30;0.30;;;13.80;99.90;;;;;;5116263;28;20409;-68
2022/06/09 02:28:36;;;;;;;0.30;0.30;;;13.80;99.90;;;;;;5115914;28;20766;-69
2022/06/09 02:31:02;;;;;;;0.30;0.30;;;13.70;99.90;;;;;;5116274;28;20180;-68
2022/06/09 02:33:28;;;;;;;0.30;0.30;;;13.80;99.90;;;;;;5115851;28;20190;-69
2022/06/09 02:35:54;;;;;;;0.30;0.30;;;13.80;99.90;;;;;;5116305;27;20413;-69
2022/06/09 02:38:21;;;;;;;0.40;0.40;;;13.80;99.90;;;;;;5116046;28;20417;-70
2022/06/09 02:40:47;;;;;;;0.30;0.30;;;13.70;99.90;;;;;;5116124;28;20168;-70
2022/06/09 02:43:13;;;;;;;0.30;0.30;;;13.80;99.90;;;;;;5115577;28;20432;-69
2022/06/09 02:45:39;;;;;;;0.30;0.30;;;13.60;99.90;;;;;;5115775;28;20754;-68
2022/06/09 02:48:05;;;;;;;0.30;0.30;;;13.70;99.90;;;;;;5115826;28;20196;-69
2022/06/09 02:50:32;;;;;;;0.30;0.30;;;13.70;99.90;;;;;;5115900;28;20409;-69
2022/06/09 02:52:58;;;;;;;0.40;0.40;;;13.70;99.90;;;;;;5115436;28;20417;-70
2022/06/09 02:55:24;;;;;;;0.30;0.30;;;13.70;99.90;;;;;;5115784;28;20430;-68
2022/06/09 02:57:50;;;;;;;0.30;0.30;;;13.60;99.90;;;;;;5115490;28;20406;-68
2022/06/09 03:00:16;;;;;;;0.30;0.30;;;13.60;99.90;;;;;;5115415;28;20463;-68
2022/06/09 03:02:43;;;;;;;0.30;0.30;;;13.60;99.90;;;;;;5115403;28;20217;-68
2022/06/09 03:05:10;;;;;;;0.30;0.30;;;13.50;99.90;;;;;;5115500;28;20492;-68
2022/06/09 03:07:35;;;;;;;0.30;0.30;;;13.60;99.90;;;;;;5115556;28;20409;-70
2022/06/09 03:10:01;;;;;;;0.30;0.30;;;13.60;99.90;;;;;;5115499;28;20402;-68
2022/06/09 03:12:26;;;;;;;0.30;0.30;;;13.50;99.90;;;;;;5115634;28;20196;-70
2022/06/09 03:14:53;;;;;;;0.40;0.40;;;13.50;99.90;;;;;;5115220;28;20183;-69
2022/06/09 03:17:19;;;;;;;0.30;0.30;;;13.50;99.90;;;;;;5115243;28;20205;-69
2022/06/09 03:19:44;;;;;;;0.30;0.30;;;13.40;99.90;;;;;;5115119;28;20476;-68
2022/06/09 03:22:10;;;;;;;0.30;0.30;;;13.30;99.90;;;;;;5114790;28;20187;-70
2022/06/09 03:24:36;;;;;;;0.30;0.30;;;13.30;99.90;;;;;;5115143;28;20183;-68
2022/06/09 03:27:01;;;;;;;0.30;0.30;;;13.20;99.90;;;;;;5114912;28;20173;-69
2022/06/09 03:29:27;;;;;;;0.30;0.30;;;13.20;99.90;;;;;;5114893;28;20167;-68
2022/06/09 03:31:52;;;;;;;0.30;0.30;;;13.10;99.90;;;;;;5114797;28;20184;-69
2022/06/09 03:34:18;;;;;;;0.30;0.30;;;13.10;99.90;;;;;;5114737;28;20175;-69
2022/06/09 03:36:45;;;;;;;0.30;0.30;;;13.00;99.90;;;;;;5114682;28;20174;-69
2022/06/09 03:39:12;;;;;;;0.30;0.30;;;12.90;99.90;;;;;;5114808;28;20239;-70
2022/06/09 03:41:38;;;;;;;0.30;0.30;;;13.00;99.90;;;;;;5112884;28;20797;-67
2022/06/09 03:44:05;;;;;;;0.30;0.30;;;13.00;99.90;;;;;;5114491;28;20446;-70
2022/06/09 03:46:30;;;;;;;0.30;0.30;;;12.90;99.90;;;;;;5114874;28;20528;-68
2022/06/09 03:48:56;;;;;;;0.30;0.30;;;12.90;99.90;;;;;;5114669;28;20407;-69
2022/06/09 03:51:21;;;;;;;0.30;0.30;;;12.80;99.90;;;;;;5114794;28;20187;-69
2022/06/09 03:53:47;;;;;;;0.30;0.30;;;12.90;99.90;;;;;;5114227;28;20194;-69
2022/06/09 03:56:15;;;;;;;0.30;0.30;;;12.90;99.90;;;;;;5114687;28;20217;-68
2022/06/09 03:58:42;;;;;;;0.30;0.30;;;12.90;99.90;;;;;;5114324;28;20198;-69
2022/06/09 04:01:13;;;;;;;0.30;0.30;;;12.90;99.90;;;;;;5114723;28;20541;-68
2022/06/09 04:03:39;;;;;;;0.30;0.30;;;13.00;99.90;;;;;;5114276;28;20422;-68
2022/06/09 04:06:05;;;;;;;0.30;0.30;;;13.00;99.90;;;;;;5114480;28;20416;-68
2022/06/09 04:08:33;;;;;;;0.30;0.30;;;13.00;99.90;;;;;;5114405;28;20410;-69
2022/06/09 04:10:58;;;;;;;0.30;0.30;;;13.00;99.90;;;;;;5114433;28;20168;-67
2022/06/09 04:13:24;;;;;;;0.30;0.30;;;13.00;99.90;;;;;;5114116;28;20501;-68
2022/06/09 04:15:50;;;;;;;0.40;0.40;;;13.10;99.90;;;;;;5114369;28;20200;-69
2022/06/09 04:18:15;;;;;;;0.30;0.30;;;13.10;99.90;;;;;;5114175;28;20251;-70
2022/06/09 04:20:41;;;;;;;0.30;0.30;;;13.20;99.90;;;;;;5114267;28;20167;-69
2022/06/09 04:23:07;;;;;;;0.30;0.30;;;13.40;99.90;;;;;;5113720;28;20206;-68
2022/06/09 04:25:33;;;;;;;0.30;0.30;;;13.50;99.90;;;;;;5114261;28;20394;-70
2022/06/09 04:27:58;;;;;;;0.30;0.30;;;13.60;99.90;;;;;;5114069;28;20198;-69
2022/06/09 04:30:24;;;;;;;0.30;0.30;;;13.70;99.90;;;;;;5114084;28;20173;-69
2022/06/09 04:32:50;;;;;;;0.50;0.50;;;13.90;99.90;;;;;;5113753;28;20188;-68
2022/06/09 04:35:16;;;;;;;0.30;0.30;;;14.00;99.90;;;;;;5114143;28;20250;-68
2022/06/09 04:38:00;;;;;;;0.30;0.30;;;13.90;99.90;;;;;;5114069;28;20448;-69
2022/06/09 04:40:27;;;;;;;0.30;0.30;;;13.90;99.90;;;;;;5114105;28;20722;-69
2022/06/09 04:42:53;;;;;;;0.30;0.30;;;13.90;99.90;;;;;;5113651;28;20925;-69
2022/06/09 04:45:19;;;;;;;0.30;0.30;;;13.80;99.90;;;;;;5114085;28;20454;-68
2022/06/09 04:47:45;;;;;;;0.30;0.30;;;13.70;99.90;;;;;;5113971;28;20168;-69
2022/06/09 04:50:12;;;;;;;0.30;0.30;;;13.70;99.90;;;;;;5113943;28;20421;-69
2022/06/09 04:52:37;;;;;;;0.30;0.30;;;13.60;99.90;;;;;;5116531;28;20429;-67
2022/06/09 04:55:04;;;;;;;0.77;0.77;;;13.60;99.90;;;;;;5117908;28;20901;-69
2022/06/09 04:57:30;;;;;;;0.30;0.30;;;13.70;99.90;;;;;;5117966;28;20168;-68
2022/06/09 04:59:55;;;;;;;0.30;0.30;;;13.90;99.90;;;;;;5117882;28;20950;-69
2022/06/09 05:02:21;;;;;;;0.30;0.30;;;14.00;99.90;;;;;;5117678;28;20369;-70
2022/06/09 05:04:47;;;;;;;0.30;0.30;;;14.20;99.90;;;;;;5117882;27;20191;-69
2022/06/09 05:07:12;;;;;;;0.30;0.30;;;14.30;99.90;;;;;;5117933;28;20398;-68
2022/06/09 05:09:38;;;;;;;0.30;0.30;;;14.40;99.90;;;;;;5117725;28;20159;-68
2022/06/09 05:12:04;;;;;;;0.30;0.30;;;14.30;99.90;;;;;;5117544;28;20570;-71
2022/06/09 05:14:30;;;;;;;0.30;0.30;;;14.30;99.90;;;;;;5117719;28;20201;-69
2022/06/09 05:16:56;;;;;;;0.30;0.30;;;14.30;99.90;;;;;;5117642;28;20668;-69
2022/06/09 05:19:21;;;;;;;0.30;0.30;;;14.10;99.90;;;;;;5117523;28;20442;-68
2022/06/09 05:21:47;;;;;;;0.30;0.30;;;14.10;99.90;;;;;;5115918;28;20173;-69
2022/06/09 05:24:13;;;;;;;0.30;0.30;;;14.10;99.90;;;;;;5117086;28;20261;-69
2022/06/09 05:26:39;;;;;;;0.30;0.30;;;14.10;99.90;;;;;;5117324;28;20395;-69
2022/06/09 05:29:05;;;;;;;0.30;0.30;;;14.10;99.90;;;;;;5117399;28;20410;-68
2022/06/09 05:31:30;;;;;;;0.30;0.30;;;14.20;99.90;;;;;;5117372;28;20256;-68
2022/06/09 05:33:56;;;;;;;0.30;0.30;;;14.20;99.90;;;;;;5116952;28;20901;-69
2022/06/09 05:36:21;;;;;;;0.40;0.40;;;14.10;99.90;;;;;;5117367;28;20178;-68
2022/06/09 05:47:00;;;;;;;0.30;0.30;;;13.70;99.90;;;;;;5117464;28;20483;-68
2022/06/09 05:49:26;;;;;;;0.30;0.30;;;13.70;99.90;;;;;;5117153;28;20436;-70
2022/06/09 05:51:52;;;;;;;0.30;0.30;;;13.80;99.90;;;;;;5117074;28;20244;-69
2022/06/09 05:54:19;;;;;;;0.30;0.30;;;13.80;99.90;;;;;;5116814;28;20168;-69
2022/06/09 05:56:45;;;;;;;0.30;0.30;;;13.90;99.90;;;;;;5116908;28;20478;-68
2022/06/09 05:59:10;;;;;;;0.30;0.30;;;13.50;99.90;;;;;;5117245;28;20450;-67
2022/06/09 06:01:36;;;;;;;0.30;0.30;;;13.60;99.90;;;;;;5116657;28;20397;-68
2022/06/09 06:04:07;;;;;;;0.30;0.30;;;13.70;99.90;;;;;;5115824;28;20168;-69
2022/06/09 06:06:33;;;;;;;0.40;0.40;;;13.60;99.90;;;;;;5116691;28;20559;-69
2022/06/09 06:09:06;;;;;;;0.33;0.33;;;13.60;99.90;;;;;;5116666;28;20440;-68
2022/06/09 06:11:34;;;;;;;0.30;0.30;;;13.60;99.90;;;;;;5116853;28;20254;-69
2022/06/09 06:14:01;;;;;;;0.30;0.30;;;13.50;99.90;;;;;;5116396;28;20450;-69
2022/06/09 06:16:26;;;;;;;0.30;0.30;;;13.60;99.90;;;;;;5116428;28;20390;-67
2022/06/09 06:18:52;;;;;;;0.30;0.30;;;13.90;99.90;;;;;;5116335;28;20446;-68
2022/06/09 06:21:18;;;;;;;0.30;0.30;;;14.40;99.90;;;;;;5116494;28;20214;-69
2022/06/09 06:23:45;;;;;;;0.50;0.50;;;15.00;99.90;;;;;;5115859;28;20448;-68
2022/06/09 06:26:11;;;;;;;0.30;0.30;;;15.40;99.90;;;;;;5116412;28;20409;-69
2022/06/09 06:28:37;;;;;;;0.30;0.30;;;17.00;99.90;;;;;;5116387;28;20762;-69
2022/06/09 06:31:03;;;;;;;0.30;0.30;;;18.60;96.20;;;;;;5116159;28;20400;-69
2022/06/09 06:33:29;;;;;;;0.30;0.30;;;19.00;93.40;;;;;;5114663;28;20996;-69
2022/06/09 06:35:54;;;;;;;0.30;0.30;;;18.50;93.60;;;;;;5116081;28;20410;-70
2022/06/09 06:38:20;;;;;;;0.60;0.60;;;17.70;95.70;;;;;;5116064;28;20769;-69
2022/06/09 06:40:46;;;;;;;0.30;0.30;;;17.30;95.90;;;;;;5115917;28;20251;-69
2022/06/09 06:43:12;;;;;;;0.30;0.30;;;16.90;96.80;;;;;;5115676;28;20486;-69
2022/06/09 06:45:38;;;;;;;0.30;0.30;;;16.60;97.80;;;;;;5115866;28;20532;-70
2022/06/09 06:48:04;;;;;;;0.30;0.30;;;18.00;98.40;;;;;;5116047;28;20183;-68
2022/06/09 06:50:29;;;;;;;0.30;0.30;;;19.30;95.60;;;;;;5115948;28;20179;-69
2022/06/09 06:52:55;;;;;;;0.30;0.30;;;19.30;91.40;;;;;;5115420;28;20433;-69
2022/06/09 06:55:22;;;;;;;0.30;0.30;;;18.80;93.30;;;;;;5115636;28;20168;-70
2022/06/09 06:57:48;;;;;;;0.30;0.30;;;18.00;94.20;;;;;;5115622;28;20171;-69
2022/06/09 07:00:19;;;;;;;0.33;0.33;;;17.40;94.00;;;;;;5115671;28;20449;-68
2022/06/09 07:02:46;;;;;;;0.40;0.40;;;17.00;96.10;;;;;;5115331;28;20507;-69
2022/06/09 07:05:12;;;;;;;0.40;0.40;;;16.50;98.00;;;;;;5116045;28;20475;-70
2022/06/09 07:07:39;;;;;;;0.30;0.30;;;16.40;97.70;;;;;;5115507;28;20392;-69
2022/06/09 07:10:06;;;;;;;0.30;0.30;;;16.40;98.40;;;;;;5115273;28;20746;-69
2022/06/09 07:12:32;;;;;;;0.80;0.80;;;16.40;97.60;;;;;;5114976;28;20834;-70
2022/06/09 07:14:57;;;;;;;0.30;0.30;;;16.00;97.10;;;;;;5114435;28;20926;-69
2022/06/09 07:17:24;;;;;;;0.30;0.30;;;15.80;98.40;;;;;;5115273;28;20497;-69
2022/06/09 07:19:50;;;;;;;0.30;0.30;;;16.20;98.50;;;;;;5115225;28;20279;-69
2022/06/09 07:22:15;;;;;;;0.30;0.30;;;17.30;98.30;;;;;;5114794;28;20942;-70
2022/06/09 07:24:42;;;;;;;0.30;0.30;;;17.70;95.40;;;;;;5115323;28;20181;-68
2022/06/09 07:27:07;;;;;;;0.30;0.30;;;18.40;95.50;;;;;;5115246;28;20405;-69
2022/06/09 07:29:33;;;;;;;0.30;0.30;;;18.70;94.30;;;;;;5113757;28;20421;-69
2022/06/09 07:32:00;;;;;;;0.30;0.30;;;19.20;93.00;;;;;;5115166;28;20644;-70
2022/06/09 07:34:26;;;;;;;0.30;0.30;;;20.10;90.50;;;;;;5115081;28;20405;-69
2022/06/09 07:36:53;;;;;;;0.30;0.30;;;21.20;89.50;;;;;;5114953;28;20477;-69
2022/06/09 07:39:19;;;;;;;0.50;0.50;;;21.90;84.80;;;;;;5114701;28;20450;-70
2022/06/09 07:41:45;;;;;;;0.30;0.30;;;22.80;80.40;;;;;;5114682;28;20376;-70
2022/06/09 07:44:11;;;;;;;0.30;0.30;;;23.50;82.50;;;;;;5114629;28;20416;-70
2022/06/09 07:46:39;;;;;;;0.30;0.30;;;23.30;79.60;;;;;;5114745;28;20390;-70
2022/06/09 07:49:06;;;;;;;0.30;0.30;;;22.20;76.80;;;;;;5114788;28;20489;-70
2022/06/09 07:51:32;;;;;;;0.30;0.30;;;21.40;80.20;;;;;;5114347;28;20372;-70
2022/06/09 07:53:59;;;;;;;0.30;0.30;;;21.60;83.50;;;;;;5114338;28;20467;-70
2022/06/09 07:56:26;;;;;;;0.30;0.30;;;21.60;84.80;;;;;;5114448;28;20168;-69
2022/06/09 07:58:52;;;;;;;0.30;0.30;;;21.50;81.30;;;;;;5114748;27;20452;-68
2022/06/09 08:01:20;;;;;;;0.30;0.30;;;21.10;80.20;;;;;;5114617;28;20405;-70
2022/06/09 08:03:46;;;;;;;0.30;0.30;;;20.30;87.90;;;;;;5114106;27;20428;-68
2022/06/09 08:06:12;;;;;;;3.07;0.83;;;20.00;85.40;;;;;;5114716;28;20399;-70
2022/06/09 08:08:38;;;;;;;0.30;0.30;;;20.00;86.00;;;;;;5114544;28;20439;-69
2022/06/09 08:11:07;;;;;;;0.30;0.30;;;19.70;90.00;;;;;;5114281;28;20491;-69
2022/06/09 08:13:33;;;;;;;0.30;0.30;;;19.00;89.80;;;;;;5113856;28;20195;-69
2022/06/09 08:15:59;;;;;;;0.30;0.30;;;18.40;90.50;;;;;;5114288;28;20392;-70
2022/06/09 08:18:25;;;;;;;0.30;0.30;;;17.80;90.70;;;;;;5112871;28;20903;-69
2022/06/09 08:20:51;;;;;;;0.30;0.30;;;17.60;93.00;;;;;;5114092;28;20411;-68
2022/06/09 08:23:22;;;;;;;0.30;0.30;;;17.90;94.70;;;;;;5113837;28;20438;-69
2022/06/09 08:25:49;;;;;;;0.30;0.30;;;18.10;94.10;;;;;;5114289;28;20244;-70
2022/06/09 08:28:18;;;;;;;0.30;0.30;;;19.80;93.00;;;;;;5114195;28;20927;-70
2022/06/09 08:30:45;;;;;;;0.30;0.30;;;22.30;83.60;;;;;;5112926;28;20455;-69
2022/06/09 08:33:12;;;;;;;0.30;0.30;;;23.70;82.70;;;;;;5113654;28;20482;-69
2022/06/09 08:35:38;;;;;;;0.30;0.30;;;23.80;76.80;;;;;;5114015;28;20511;-69
2022/06/09 08:38:05;;;;;;;0.30;0.30;;;23.60;76.90;;;;;;5113969;28;20860;-70
2022/06/09 08:40:36;;;;;;;0.30;0.30;;;23.20;77.40;;;;;;5114076;28;20421;-69
2022/06/09 08:43:30;;;;;;;0.40;0.40;;;22.20;77.60;;;;;;5113752;28;20429;-70
2022/06/09 08:45:57;;;;;;;0.30;0.30;;;20.60;78.00;;;;;;5114101;28;20772;-69
2022/06/09 08:48:25;;;;;;;0.40;0.40;;;20.50;87.60;;;;;;5113871;28;20398;-69
2022/06/09 08:51:04;;;;;;;0.30;0.30;;;21.00;83.00;;;;;;5113916;28;20476;-70
2022/06/09 08:53:37;;;;;;;0.60;0.60;;;20.80;80.00;;;;;;5113619;28;20760;-69
2022/06/09 08:56:17;;;;;;;0.30;0.30;;;20.20;83.10;;;;;;5113973;28;20430;-68
2022/06/09 08:58:48;;;;;;;0.30;0.30;;;19.90;84.30;;;;;;5113908;28;20453;-69
2022/06/09 09:01:22;;;;;;;0.30;0.30;;;19.40;90.60;;;;;;5113860;28;20430;-69
2022/06/09 09:03:57;;;;;;;0.40;0.40;;;18.70;89.00;;;;;;5113721;28;20415;-69
2022/06/09 09:06:40;;;;;;;0.30;0.30;;;18.30;91.30;;;;;;5113851;28;20397;-68
2022/06/09 09:09:15;;;;;;;0.30;0.30;;;17.70;92.00;;;;;;5113896;28;20452;-70
2022/06/09 09:11:59;;;;;;;0.30;0.30;;;17.50;93.40;;;;;;5113582;28;20445;-68
2022/06/09 09:14:35;;;;;;;0.40;0.40;;;17.30;93.20;;;;;;5113840;28;20398;-69
2022/06/09 09:17:09;;;;;;;0.30;0.30;;;17.00;91.50;;;;;;5114048;28;20394;-69
2022/06/09 09:20:06;;;;;;;0.30;0.30;;;17.90;93.50;;;;;;5113523;28;20453;-68
2022/06/09 09:22:59;;;;;;;0.30;0.30;;;20.00;83.80;;;;;;5113280;28;20462;-69
2022/06/09 09:25:28;;;;;;;0.40;0.40;;;20.70;81.60;;;;;;5113490;28;20379;-70
2022/06/09 09:28:01;;;;;;;0.30;0.30;;;20.20;79.90;;;;;;5113503;28;20913;-69
2022/06/09 09:30:43;;;;;;;0.30;0.30;;;19.80;82.90;;;;;;5113675;28;20393;-69
2022/06/09 09:33:16;;;;;;;0.30;0.30;;;19.30;82.50;;;;;;5111921;28;20438;-69
2022/06/09 09:35:44;;;;;;;0.30;0.30;;;18.80;84.40;;;;;;5113638;28;20413;-68
2022/06/09 09:38:14;;;;;;;0.30;0.30;;;18.40;87.80;;;;;;5114223;28;20401;-70
2022/06/09 09:40:46;;;;;;;0.30;0.30;;;18.30;87.60;;;;;;5117066;28;20458;-69
2022/06/09 09:43:21;;;;;;;0.30;0.30;;;18.00;86.50;;;;;;5116848;28;20419;-69
2022/06/09 09:45:50;;;;;;;0.30;0.30;;;17.60;90.20;;;;;;5117227;28;20404;-70
2022/06/09 09:48:19;;;;;;;0.30;0.30;;;18.20;92.10;;;;;;5117089;28;20485;-69
2022/06/09 09:51:05;;;;;;;0.40;0.40;;;18.60;89.70;;;;;;5117084;28;20392;-68
2022/06/09 09:53:38;;;;;;;0.30;0.30;;;18.20;87.40;;;;;;5116696;28;20411;-69
2022/06/09 09:56:16;;;;;;;0.30;0.30;;;18.20;90.00;;;;;;5116935;28;20467;-70
2022/06/09 09:58:47;;;;;;;0.40;0.40;;;18.30;89.60;;;;;;5117071;28;20451;-69
2022/06/09 10:01:22;;;;;;;0.30;0.30;;;18.20;92.20;;;;;;5116934;28;20726;-70
2022/06/09 10:09:54;;;;;;;0.30;0.30;;;16.70;89.20;;;;;;5116606;28;20397;-68
2022/06/09 10:12:23;;;;;;;0.30;0.30;;;15.80;90.90;;;;;;5116481;28;20455;-69
2022/06/09 10:14:52;;;;;;;0.30;0.30;;;15.30;93.60;;;;;;5116620;28;20406;-69
2022/06/09 10:18:02;;;;;;;0.30;0.30;;;14.90;93.00;;;;;;5116536;28;20401;-68
2022/06/09 10:20:47;;;;;;;0.30;0.30;;;14.40;92.80;;;;;;5101578;28;20457;-69
2022/06/09 10:23:27;;;;;;;0.30;0.30;;;14.10;95.50;;;;;;5116032;27;20442;-69
2022/06/09 10:26:17;;;;;;;0.30;0.30;;;14.10;96.80;;;;;;5116282;28;20425;-70
2022/06/09 10:28:50;;;;;;;0.40;0.40;;;14.30;98.00;;;;;;5116308;28;20398;-69
2022/06/09 10:31:46;;;;;;;0.30;0.30;;;14.40;96.50;;;;;;5116359;28;20405;-69
2022/06/09 10:34:39;;;;;;;0.30;0.30;;;14.70;97.80;;;;;;5115921;28;20420;-70
2022/06/09 10:37:26;;;;;;;0.40;0.40;;;15.20;97.20;;;;;;5116210;28;20750;-68
2022/06/09 10:40:06;;;;;;;0.30;0.30;;;15.80;94.80;;;;;;5116078;28;20441;-70
2022/06/09 10:42:52;;;;;;;2.63;0.83;;;16.50;95.40;;;;;;5115633;28;20429;-69
2022/06/09 10:45:24;;;;;;;0.30;0.30;;;17.20;93.80;;;;;;5115907;28;20402;-69
2022/06/09 10:56:40;;;;;;;0.30;0.30;;;20.10;93.70;;;;;;5116643;28;20477;-69
2022/06/09 10:59:23;;;;;;;0.37;0.37;;;20.20;87.90;;;;;;5115412;28;20452;-68
2022/06/09 11:01:49;;;;;;;0.30;0.30;;;20.20;85.80;;;;;;5115714;28;20400;-70
2022/06/09 11:04:18;;;;;;;0.30;0.30;;;20.30;87.90;;;;;;5115434;28;20465;-69
2022/06/09 11:07:13;;;;;;;0.30;0.30;;;20.30;88.20;;;;;;5115592;28;20898;-70
2022/06/09 11:09:53;;;;;;;0.30;0.30;;;20.60;92.60;;;;;;5115601;28;20902;-69
2022/06/09 11:12:28;;;;;;;0.40;0.40;;;20.60;89.80;;;;;;5115240;28;20489;-69
2022/06/09 11:15:17;;;;;;;0.40;0.40;;;20.60;90.10;;;;;;5115617;28;20410;-68
2022/06/09 11:18:05;;;;;;;0.30;0.30;;;20.50;90.40;;;;;;5115444;28;20719;-69
2022/06/09 11:20:59;;;;;;;0.40;0.40;;;20.50;90.50;;;;;;5115269;28;20438;-70
2022/06/09 11:23:25;;;;;;;0.30;0.30;;;20.30;88.20;;;;;;5114767;28;20498;-70
2022/06/09 11:25:55;;;;;;;0.30;0.30;;;20.30;87.90;;;;;;5115205;28;20386;-69
2022/06/09 11:28:43;;;;;;;0.30;0.30;;;20.20;90.00;;;;;;5115706;28;20713;-69
2022/06/09 11:31:31;;;;;;;0.30;0.30;;;20.10;87.10;;;;;;5115012;28;20389;-69
2022/06/09 11:34:24;;;;;;;0.30;0.30;;;19.90;91.40;;;;;;5114822;28;20417;-69
2022/06/09 11:37:07;;;;;;;0.30;0.30;;;19.20;91.40;;;;;;5114875;28;20402;-68
2022/06/09 11:40:05;;;;;;;0.30;0.30;;;18.60;88.40;;;;;;5114791;28;20448;-69
2022/06/09 11:42:48;;;;;;;2.53;1.40;;;17.40;91.00;;;;;;5114639;28;20775;-68
2022/06/09 11:45:33;;;;;;;0.30;0.30;;;16.30;91.50;;;;;;5114910;28;20397;-68
2022/06/09 11:48:03;;;;;;;0.30;0.30;;;15.60;94.50;;;;;;5113548;28;20398;-69
2022/06/09 11:50:34;;;;;;;0.50;0.50;;;15.30;96.00;;;;;;5114816;28;20485;-69
2022/06/09 11:53:01;;;;;;;0.30;0.30;;;15.00;96.80;;;;;;5114334;27;20428;-70
2022/06/09 11:58:34;;;;;;;0.30;0.30;;;14.90;97.10;;;;;;5114593;28;20796;-69
2022/06/09 12:01:27;;;;;;;0.30;0.30;;;14.90;98.10;;;;;;5114049;28;20441;-68
2022/06/09 12:04:02;;;;;;;0.30;0.30;;;14.90;99.50;;;;;;5114126;28;20983;-70
2022/06/09 12:06:43;;;;;;;0.30;0.30;;;14.90;98.20;;;;;;5114421;28;20384;-68
2022/06/09 12:09:24;;;;;;;0.30;0.30;;;15.00;98.00;;;;;;5114426;27;20402;-68
2022/06/09 12:12:13;;;;;;;0.30;0.30;;;15.00;98.30;;;;;;5114399;28;20398;-70
2022/06/09 12:14:40;;;;;;;0.30;0.30;;;15.20;96.70;;;;;;5114485;28;20743;-68
2022/06/09 12:17:20;;;;;;;0.30;0.30;;;15.50;94.60;;;;;;5114569;28;20903;-68
2022/06/09 12:19:59;;;;;;;0.30;0.30;;;16.00;96.10;;;;;;5114288;28;20491;-68
2022/06/09 12:22:39;;;;;;;0.30;0.30;;;16.40;97.40;;;;;;5113961;28;20937;-69
2022/06/09 12:25:08;;;;;;;0.40;0.40;;;16.70;94.40;;;;;;5114137;28;20428;-68
2022/06/09 12:27:42;;;;;;;0.30;0.30;;;17.00;95.90;;;;;;5114425;28;20499;-70
2022/06/09 12:30:25;;;;;;;0.30;0.30;;;17.20;96.70;;;;;;5114330;28;20397;-69
2022/06/09 12:33:15;;;;;;;0.30;0.30;;;17.40;95.50;;;;;;5114022;28;20429;-69
2022/06/09 12:35:53;;;;;;;0.30;0.30;;;17.50;95.00;;;;;;5114051;28;20439;-68
2022/06/09 12:38:29;;;;;;;0.30;0.30;;;17.60;93.70;;;;;;5114190;28;20454;-70
2022/06/09 12:41:08;;;;;;;0.30;0.30;;;17.80;95.20;;;;;;5113815;28;20451;-70
2022/06/09 12:43:39;;;;;;;0.30;0.30;;;17.90;93.90;;;;;;5113735;28;20404;-70
2022/06/09 12:46:26;;;;;;;0.30;0.30;;;17.90;93.70;;;;;;5114257;28;20392;-68
2022/06/09 12:48:54;;;;;;;0.30;0.30;;;18.00;95.30;;;;;;5114138;28;20398;-70
2022/06/09 12:51:31;;;;;;;0.30;0.30;;;17.90;96.90;;;;;;5113952;28;20406;-70
2022/06/09 12:54:03;;;;;;;0.30;0.30;;;17.80;95.00;;;;;;5112369;28;20458;-68
2022/06/09 12:56:36;;;;;;;0.30;0.30;;;17.60;95.50;;;;;;5112619;28;20424;-69
2022/06/09 12:59:14;;;;;;;0.30;0.30;;;17.50;93.20;;;;;;5113923;28;20505;-70
2022/06/09 13:01:51;;;;;;;0.30;0.30;;;17.40;95.50;;;;;;5113902;28;20446;-69
2022/06/09 13:04:18;;;;;;;0.30;0.30;;;17.40;96.50;;;;;;5113640;28;20727;-68
2022/06/09 13:06:47;;;;;;;0.30;0.30;;;17.60;95.10;;;;;;5113553;28;20390;-69
2022/06/09 13:09:20;;;;;;;0.30;0.30;;;17.80;95.10;;;;;;5113795;28;20865;-70
2022/06/09 13:14:34;;;;;;;0.37;0.37;;;18.20;96.30;;;;;;5116403;28;20392;-69
2022/06/09 13:17:06;;;;;;;0.30;0.30;;;18.00;93.00;;;;;;5117578;28;20418;-69
2022/06/09 13:19:34;;;;;;;0.30;0.30;;;18.20;92.10;;;;;;5117733;28;20449;-69
2022/06/09 13:22:04;;;;;;;0.30;0.30;;;18.30;92.40;;;;;;5117729;28;20424;-69
2022/06/09 13:24:34;;;;;;;0.30;0.30;;;18.30;95.50;;;;;;5117658;28;20768;-69
2022/06/09 13:27:02;;;;;;;0.30;0.30;;;18.00;92.10;;;;;;5117365;28;20396;-69
2022/06/09 13:29:39;;;;;;;0.30;0.30;;;17.50;93.20;;;;;;5117530;28;20395;-68
2022/06/09 13:32:19;;;;;;;0.30;0.30;;;17.30;94.10;;;;;;5117090;28;20833;-70
2022/06/09 13:34:47;;;;;;;0.30;0.30;;;17.10;95.60;;;;;;5117450;28;20447;-70